Darstellungsparameter: Aktuell verwendete Einstellungen:
Skalierung der Graphiken ... ?
xyx+y,   Skalierungsfaktor:      Skalierung: Modus: x, Faktor: 1
Darstellungszeitraum ... ?
Vom - - bis: - -   Zeitraum: 08.07.2022 - 10.07.2022
Min/Max/Avg-Anzeige ... ?
Zeige MMA aktuell
Zeige MMA Monat
Zeige MMA alles
Zeige --A aktuell
Zeige --A Monat
Zeige --A alles
Keine MMA-Anzeige
MMA:
Average (ber die Originaldaten)
MMA-Basis: 08.07.2022 - 10.07.2022
Quicknavigation für Darstellung... ?
Tage:      1T, 2T, 3T, 5T -1T -2T -3T -5T +1T +2T +3T +5T
Wochen: 1W, 2W, 3W -1W -2W -3W +1W +2W +3W
Monate: 1M, 3M, 6M -1M -3M -6M +1M +3M +6M
Jahre:    1J, 3J, 5J, 10J -1J -3J -5J -10J +1J +3J +5J +10J
Nutze für die Darstellung ... ?
Originaldaten oder Mittelwerte auf ...
Stundenbasis Tagesbasis Wochenbasis
Monatsbasis Jahresbasis      Datenbasis: Original-Daten
Darstellen als:
Statistik (Auto) Statistik J:M      Darstellung:
Zur Graphik,    zurück zur Übersicht aller Sensoren.
 
Tabellarische Datenbersicht: ?
 
Sensor: Nr:Datum:Temp:Abs-Feuchte:Windchill:Wind:
Aussen-T/F 1 08-07-2022 00:00:00 14.8 C 9.63 g/m*3 14.8 C 3.2 km/h
2 08-07-2022 00:05:00 14.7 C 9.69 g/m*3 14.7 C 0 km/h
3 08-07-2022 00:10:00 14.6 C 9.76 g/m*3 14.6 C 1.6 km/h
4 08-07-2022 00:15:00 14.5 C 9.7 g/m*3 14.5 C 3.2 km/h
5 08-07-2022 00:20:00 14.4 C 9.64 g/m*3 14.4 C 1.6 km/h
6 08-07-2022 00:25:00 14.4 C 9.64 g/m*3 14.4 C 1.6 km/h
7 08-07-2022 00:30:00 14.4 C 9.77 g/m*3 14.4 C 3.2 km/h
8 08-07-2022 00:35:00 14.4 C 9.77 g/m*3 14.4 C 1.6 km/h
9 08-07-2022 00:40:00 14.4 C 9.64 g/m*3 14.4 C 1.6 km/h
10 08-07-2022 00:45:00 14.5 C 9.7 g/m*3 14.5 C 1.6 km/h
11 08-07-2022 00:50:00 14.6 C 9.76 g/m*3 14.6 C 0 km/h
12 08-07-2022 00:55:00 14.6 C 9.76 g/m*3 14.6 C 0 km/h
13 08-07-2022 01:00:00 14.6 C 9.89 g/m*3 14.6 C 0 km/h
14 08-07-2022 01:05:00 14.6 C 9.89 g/m*3 14.6 C 0 km/h
15 08-07-2022 01:10:00 14.6 C 9.89 g/m*3 14.6 C 0 km/h
16 08-07-2022 01:15:00 14.6 C 9.64 g/m*3 14.6 C 6.4 km/h
17 08-07-2022 01:20:00 14.7 C 9.82 g/m*3 14.7 C 0 km/h
18 08-07-2022 01:25:00 14.7 C 9.69 g/m*3 14.7 C 3.2 km/h
19 08-07-2022 01:30:00 14.8 C 9.75 g/m*3 14.8 C 0 km/h
20 08-07-2022 01:35:00 14.8 C 9.88 g/m*3 14.8 C 0 km/h
21 08-07-2022 01:40:00 14.8 C 9.75 g/m*3 14.8 C 0 km/h
22 08-07-2022 01:45:00 14.8 C 9.88 g/m*3 14.8 C 0 km/h
23 08-07-2022 01:50:00 14.8 C 9.88 g/m*3 14.8 C 1.6 km/h
24 08-07-2022 01:55:00 14.8 C 9.75 g/m*3 14.8 C 1.6 km/h
25 08-07-2022 02:00:00 14.8 C 9.75 g/m*3 14.8 C 1.6 km/h
Sensor: Nr:Datum:Temp:Abs-Feuchte:Windchill:Wind:
Aussen-T/F 26 08-07-2022 02:05:00 14.8 C 9.88 g/m*3 14.8 C 0 km/h
27 08-07-2022 02:10:00 14.8 C 9.75 g/m*3 14.8 C 0 km/h
28 08-07-2022 02:15:00 14.8 C 9.75 g/m*3 14.8 C 0 km/h
29 08-07-2022 02:20:00 14.8 C 9.75 g/m*3 14.8 C 3.2 km/h
30 08-07-2022 02:25:00 14.8 C 9.63 g/m*3 14.8 C 1.6 km/h
31 08-07-2022 02:30:00 14.8 C 9.75 g/m*3 14.8 C 0 km/h
32 08-07-2022 02:35:00 14.9 C 9.69 g/m*3 14.9 C 6.4 km/h
33 08-07-2022 02:40:00 14.9 C 9.56 g/m*3 14.9 C 4.8 km/h
34 08-07-2022 02:45:00 15 C 9.62 g/m*3 15 C 1.6 km/h
35 08-07-2022 02:50:00 15 C 9.62 g/m*3 15 C 1.6 km/h
36 08-07-2022 02:55:00 15 C 9.75 g/m*3 15 C 3.2 km/h
37 08-07-2022 03:00:00 15 C 9.87 g/m*3 15 C 0 km/h
38 08-07-2022 03:05:00 15 C 9.87 g/m*3 15 C 0 km/h
39 08-07-2022 03:10:00 14.9 C 9.81 g/m*3 14.9 C 4.8 km/h
40 08-07-2022 03:15:00 14.8 C 9.75 g/m*3 14.8 C 3.2 km/h
41 08-07-2022 03:20:00 14.8 C 9.75 g/m*3 14.8 C 1.6 km/h
42 08-07-2022 03:25:00 14.8 C 9.88 g/m*3 14.8 C 0 km/h
43 08-07-2022 03:30:00 14.7 C 9.82 g/m*3 14.7 C 4.8 km/h
44 08-07-2022 03:35:00 14.5 C 9.58 g/m*3 14.5 C 6.4 km/h
45 08-07-2022 03:40:00 14.4 C 9.64 g/m*3 14.4 C 0 km/h
46 08-07-2022 03:45:00 14.3 C 9.58 g/m*3 14.3 C 1.6 km/h
47 08-07-2022 03:50:00 14.2 C 9.52 g/m*3 14.2 C 3.2 km/h
48 08-07-2022 03:55:00 14 C 9.41 g/m*3 14 C 6.4 km/h
49 08-07-2022 04:00:00 13.9 C 9.47 g/m*3 13.9 C 6.4 km/h
50 08-07-2022 04:05:00 13.9 C 9.47 g/m*3 13.9 C 0 km/h
Sensor: Nr:Datum:Temp:Abs-Feuchte:Windchill:Wind:
Aussen-T/F 51 08-07-2022 04:10:00 13.8 C 9.41 g/m*3 13.8 C 3.2 km/h
52 08-07-2022 04:15:00 13.8 C 9.41 g/m*3 13.8 C 4.8 km/h
53 08-07-2022 04:20:00 13.8 C 9.41 g/m*3 13.8 C 6.4 km/h
54 08-07-2022 04:25:00 13.8 C 9.53 g/m*3 13.8 C 1.6 km/h
55 08-07-2022 04:30:00 13.8 C 9.53 g/m*3 13.8 C 0 km/h
56 08-07-2022 04:35:00 13.6 C 9.42 g/m*3 13.6 C 0 km/h
57 08-07-2022 04:40:00 13.4 C 9.3 g/m*3 13.4 C 3.2 km/h
58 08-07-2022 04:45:00 13.2 C 9.19 g/m*3 13.2 C 3.2 km/h
59 08-07-2022 04:50:00 12.9 C 9.13 g/m*3 12.9 C 1.6 km/h
60 08-07-2022 04:55:00 12.8 C 9.07 g/m*3 12.8 C 3.2 km/h
61 08-07-2022 05:00:00 12.6 C 9.07 g/m*3 12.6 C 4.8 km/h
62 08-07-2022 05:05:00 12.3 C 9.01 g/m*3 12.3 C 1.6 km/h
63 08-07-2022 05:10:00 12.1 C 8.9 g/m*3 12.1 C 1.6 km/h
64 08-07-2022 05:15:00 11.9 C 8.79 g/m*3 11.9 C 3.2 km/h
65 08-07-2022 05:20:00 11.8 C 8.84 g/m*3 11.8 C 1.6 km/h
66 08-07-2022 05:25:00 11.6 C 8.73 g/m*3 11.6 C 3.2 km/h
67 08-07-2022 05:30:00 11.4 C 8.72 g/m*3 11.4 C 1.6 km/h
68 08-07-2022 05:35:00 11.3 C 8.67 g/m*3 11.3 C 1.6 km/h
69 08-07-2022 05:40:00 11.2 C 8.62 g/m*3 11.2 C 1.6 km/h
70 08-07-2022 05:45:00 11.1 C 8.56 g/m*3 11.1 C 0 km/h
71 08-07-2022 05:50:00 11 C 8.61 g/m*3 11 C 0 km/h
72 08-07-2022 05:55:00 10.9 C 8.55 g/m*3 10.9 C 1.6 km/h
73 08-07-2022 06:00:00 10.8 C 8.5 g/m*3 10.8 C 1.6 km/h
74 08-07-2022 06:05:00 10.8 C 8.6 g/m*3 10.8 C 0 km/h
75 08-07-2022 06:10:00 10.7 C 8.55 g/m*3 10.7 C 0 km/h
Sensor: Nr:Datum:Temp:Abs-Feuchte:Windchill:Wind:
Aussen-T/F 76 08-07-2022 06:15:00 10.7 C 8.55 g/m*3 10.7 C 0 km/h
77 08-07-2022 06:20:00 10.7 C 8.55 g/m*3 10.7 C 0 km/h
78 08-07-2022 06:25:00 10.7 C 8.64 g/m*3 10.7 C 1.6 km/h
79 08-07-2022 06:30:00 10.7 C 8.64 g/m*3 10.7 C 0 km/h
80 08-07-2022 06:35:00 10.8 C 8.8 g/m*3 10.8 C 0 km/h
81 08-07-2022 06:40:00 10.8 C 8.8 g/m*3 10.8 C 0 km/h
82 08-07-2022 06:45:00 10.9 C 8.95 g/m*3 10.9 C 0 km/h
83 08-07-2022 06:50:00 11.1 C 9.07 g/m*3 11.1 C 0 km/h
84 08-07-2022 06:55:00 11.3 C 9.18 g/m*3 11.3 C 0 km/h
85 08-07-2022 07:00:00 11.5 C 9.4 g/m*3 11.5 C 0 km/h
86 08-07-2022 07:05:00 11.7 C 9.52 g/m*3 11.7 C 0 km/h
87 08-07-2022 07:10:00 11.9 C 9.64 g/m*3 11.9 C 0 km/h
88 08-07-2022 07:15:00 12.1 C 9.65 g/m*3 12.1 C 0 km/h
89 08-07-2022 07:20:00 12.3 C 9.77 g/m*3 12.3 C 0 km/h
90 08-07-2022 07:25:00 12.5 C 9.78 g/m*3 12.5 C 0 km/h
91 08-07-2022 07:30:00 12.7 C 9.91 g/m*3 12.7 C 0 km/h
92 08-07-2022 07:35:00 12.9 C 9.92 g/m*3 12.9 C 1.6 km/h
93 08-07-2022 07:40:00 13.2 C 9.99 g/m*3 13.2 C 1.6 km/h
94 08-07-2022 07:45:00 13.3 C 9.94 g/m*3 13.3 C 0 km/h
95 08-07-2022 07:50:00 13.5 C 9.94 g/m*3 13.5 C 0 km/h
96 08-07-2022 07:55:00 13.6 C 9.89 g/m*3 13.6 C 0 km/h
97 08-07-2022 08:00:00 13.7 C 9.83 g/m*3 13.7 C 3.2 km/h
98 08-07-2022 08:05:00 14 C 10.01 g/m*3 14 C 1.6 km/h
99 08-07-2022 08:10:00 14.2 C 9.77 g/m*3 14.2 C 0 km/h
100 08-07-2022 08:15:00 14.4 C 9.77 g/m*3 14.4 C 0 km/h
Sensor: Nr:Datum:Temp:Abs-Feuchte:Windchill:Wind:
Aussen-T/F 101 08-07-2022 08:20:00 14.6 C 9.64 g/m*3 14.6 C 4.8 km/h
102 08-07-2022 08:25:00 14.7 C 9.69 g/m*3 14.7 C 0 km/h
103 08-07-2022 08:30:00 14.9 C 9.69 g/m*3 14.9 C 3.2 km/h
104 08-07-2022 08:35:00 15 C 9.62 g/m*3 15 C 1.6 km/h
105 08-07-2022 08:40:00 15.1 C 9.55 g/m*3 15.1 C 1.6 km/h
106 08-07-2022 08:45:00 15.2 C 9.61 g/m*3 15.2 C 3.2 km/h
107 08-07-2022 08:50:00 15.3 C 9.53 g/m*3 15.3 C 4.8 km/h
108 08-07-2022 08:55:00 15.5 C 9.65 g/m*3 15.5 C 1.6 km/h
109 08-07-2022 09:00:00 15.6 C 9.58 g/m*3 15.6 C 4.8 km/h
110 08-07-2022 09:05:00 15.7 C 9.37 g/m*3 15.7 C 8.1 km/h
111 08-07-2022 09:10:00 15.7 C 9.37 g/m*3 15.7 C 8.1 km/h
112 08-07-2022 09:15:00 15.8 C 9.15 g/m*3 15.8 C 9.7 km/h
113 08-07-2022 09:20:00 15.8 C 9.15 g/m*3 15.8 C 11.3 km/h
114 08-07-2022 09:25:00 15.8 C 9.29 g/m*3 15.8 C 11.3 km/h
115 08-07-2022 09:30:00 15.8 C 9.29 g/m*3 15.8 C 9.7 km/h
116 08-07-2022 09:35:00 15.9 C 9.21 g/m*3 15.9 C 9.7 km/h
117 08-07-2022 09:40:00 16.1 C 9.32 g/m*3 16.1 C 9.7 km/h
118 08-07-2022 09:45:00 16 C 9.13 g/m*3 16 C 16.1 km/h
119 08-07-2022 09:50:00 15.9 C 9.21 g/m*3 15.9 C 8.1 km/h
120 08-07-2022 09:55:00 15.9 C 9.07 g/m*3 15.9 C 6.4 km/h
121 08-07-2022 10:00:00 15.9 C 9.21 g/m*3 15.9 C 9.7 km/h
122 08-07-2022 10:05:00 16.1 C 9.18 g/m*3 16.1 C 11.3 km/h
123 08-07-2022 10:10:00 16.3 C 9.3 g/m*3 16.3 C 11.3 km/h
124 08-07-2022 10:15:00 16.6 C 9.32 g/m*3 16.6 C 11.3 km/h
125 08-07-2022 10:20:00 16.7 C 9.38 g/m*3 16.7 C 4.8 km/h
Sensor: Nr:Datum:Temp:Abs-Feuchte:Windchill:Wind:
Aussen-T/F 126 08-07-2022 10:25:00 16.7 C 9.24 g/m*3 16.7 C 11.3 km/h
127 08-07-2022 10:30:00 16.6 C 9.32 g/m*3 16.6 C 11.3 km/h
128 08-07-2022 10:35:00 16.6 C 9.32 g/m*3 16.6 C 6.4 km/h
129 08-07-2022 10:40:00 16.8 C 9.44 g/m*3 16.8 C 4.8 km/h
130 08-07-2022 10:45:00 17.2 C 9.67 g/m*3 17.2 C 9.7 km/h
131 08-07-2022 10:50:00 17.6 C 9.45 g/m*3 17.6 C 12.9 km/h
132 08-07-2022 10:55:00 17.9 C 9.77 g/m*3 17.9 C 8.1 km/h
133 08-07-2022 11:00:00 17.9 C 9.62 g/m*3 17.9 C 9.7 km/h
134 08-07-2022 11:05:00 17.8 C 9.71 g/m*3 17.8 C 8.1 km/h
135 08-07-2022 11:10:00 17.9 C 9.77 g/m*3 17.9 C 11.3 km/h
136 08-07-2022 11:15:00 18.1 C 9.73 g/m*3 18.1 C 11.3 km/h
137 08-07-2022 11:20:00 18.1 C 9.58 g/m*3 18.1 C 9.7 km/h
138 08-07-2022 11:25:00 17.9 C 9.62 g/m*3 17.9 C 6.4 km/h
139 08-07-2022 11:30:00 18.1 C 9.89 g/m*3 18.1 C 6.4 km/h
140 08-07-2022 11:35:00 18.3 C 9.85 g/m*3 18.3 C 9.7 km/h
141 08-07-2022 11:40:00 18.3 C 9.85 g/m*3 18.3 C 9.7 km/h
142 08-07-2022 11:45:00 18.3 C 9.69 g/m*3 18.3 C 9.7 km/h
143 08-07-2022 11:50:00 18.5 C 9.97 g/m*3 18.5 C 9.7 km/h
144 08-07-2022 11:55:00 18.8 C 9.82 g/m*3 18.8 C 6.4 km/h
145 08-07-2022 12:00:00 18.9 C 9.72 g/m*3 18.9 C 11.3 km/h
146 08-07-2022 12:05:00 18.8 C 9.82 g/m*3 18.8 C 9.7 km/h
147 08-07-2022 12:10:00 19.1 C 9.67 g/m*3 19.1 C 6.4 km/h
148 08-07-2022 12:15:00 19.4 C 9.68 g/m*3 19.4 C 11.3 km/h
149 08-07-2022 12:20:00 19.7 C 9.68 g/m*3 19.7 C 9.7 km/h
150 08-07-2022 12:25:00 19.9 C 10.14 g/m*3 19.9 C 4.8 km/h
Sensor: Nr:Datum:Temp:Abs-Feuchte:Windchill:Wind:
Aussen-T/F 151 08-07-2022 12:30:00 20.4 C 10.26 g/m*3 20.4 C 11.3 km/h
152 08-07-2022 12:35:00 20.8 C 9.96 g/m*3 20.8 C 9.7 km/h
153 08-07-2022 12:40:00 20.9 C 10.2 g/m*3 20.9 C 8.1 km/h
154 08-07-2022 12:45:00 21.1 C 9.95 g/m*3 21.1 C 9.7 km/h
155 08-07-2022 12:50:00 21.2 C 10.01 g/m*3 21.2 C 9.7 km/h
156 08-07-2022 12:55:00 21.1 C 9.95 g/m*3 21.1 C 12.9 km/h
157 08-07-2022 13:00:00 21.1 C 9.77 g/m*3 21.1 C 12.9 km/h
158 08-07-2022 13:05:00 21.1 C 9.58 g/m*3 21.1 C 9.7 km/h
159 08-07-2022 13:10:00 21.2 C 9.82 g/m*3 21.2 C 9.7 km/h
160 08-07-2022 13:15:00 21.3 C 9.88 g/m*3 21.3 C 9.7 km/h
161 08-07-2022 13:20:00 21.6 C 10.24 g/m*3 21.6 C 11.3 km/h
162 08-07-2022 13:25:00 21.6 C 10.05 g/m*3 21.6 C 17.7 km/h
163 08-07-2022 13:30:00 21.7 C 10.49 g/m*3 21.7 C 3.2 km/h
164 08-07-2022 13:35:00 21.8 C 9.98 g/m*3 21.8 C 4.8 km/h
165 08-07-2022 13:40:00 22 C 10.29 g/m*3 22 C 8.1 km/h
166 08-07-2022 13:45:00 22.3 C 10.27 g/m*3 22.3 C 9.7 km/h
167 08-07-2022 13:50:00 22.4 C 10.33 g/m*3 22.4 C 16.1 km/h
168 08-07-2022 13:55:00 22.4 C 10.13 g/m*3 22.4 C 8.1 km/h
169 08-07-2022 14:00:00 22.4 C 10.33 g/m*3 22.4 C 9.7 km/h
170 08-07-2022 14:05:00 22.4 C 10.13 g/m*3 22.4 C 14.5 km/h
171 08-07-2022 14:10:00 22.4 C 10.13 g/m*3 22.4 C 12.9 km/h
172 08-07-2022 14:15:00 22.5 C 10.19 g/m*3 22.5 C 16.1 km/h
173 08-07-2022 14:20:00 22.7 C 10.51 g/m*3 22.7 C 11.3 km/h
174 08-07-2022 14:25:00 23.1 C 10.54 g/m*3 23.1 C 8.1 km/h
175 08-07-2022 14:30:00 23.4 C 10.72 g/m*3 23.4 C 4.8 km/h
Sensor: Nr:Datum:Temp:Abs-Feuchte:Windchill:Wind:
Aussen-T/F 176 08-07-2022 14:35:00 23.5 C 10.36 g/m*3 23.5 C 12.9 km/h
177 08-07-2022 14:40:00 23.5 C 10.36 g/m*3 23.5 C 9.7 km/h
178 08-07-2022 14:45:00 23.5 C 10.57 g/m*3 23.5 C 14.5 km/h
179 08-07-2022 14:50:00 23.8 C 10.33 g/m*3 23.8 C 8.1 km/h
180 08-07-2022 14:55:00 23.8 C 10.76 g/m*3 23.8 C 9.7 km/h
181 08-07-2022 15:00:00 24.1 C 10.5 g/m*3 24.1 C 9.7 km/h
182 08-07-2022 15:05:00 24.3 C 10.84 g/m*3 24.3 C 8.1 km/h
183 08-07-2022 15:10:00 24.4 C 10.46 g/m*3 24.4 C 14.5 km/h
184 08-07-2022 15:15:00 24.4 C 10.46 g/m*3 24.4 C 19.3 km/h
185 08-07-2022 15:20:00 24.3 C 10.4 g/m*3 24.3 C 11.3 km/h
186 08-07-2022 15:25:00 24.1 C 10.5 g/m*3 24.1 C 14.5 km/h
187 08-07-2022 15:30:00 24.3 C 10.84 g/m*3 24.3 C 12.9 km/h
188 08-07-2022 15:35:00 24.7 C 11.09 g/m*3 24.7 C 14.5 km/h
189 08-07-2022 15:40:00 24.8 C 10.47 g/m*3 24.8 C 17.7 km/h
190 08-07-2022 15:45:00 24.6 C 10.58 g/m*3 24.6 C 16.1 km/h
191 08-07-2022 15:50:00 24.7 C 10.64 g/m*3 24.7 C 17.7 km/h
192 08-07-2022 15:55:00 24.7 C 10.64 g/m*3 24.7 C 12.9 km/h
193 08-07-2022 16:00:00 24.7 C 10.64 g/m*3 24.7 C 11.3 km/h
194 08-07-2022 16:05:00 24.6 C 10.58 g/m*3 24.6 C 19.3 km/h
195 08-07-2022 16:10:00 24.6 C 10.8 g/m*3 24.6 C 8.1 km/h
196 08-07-2022 16:15:00 25.1 C 11.11 g/m*3 25.1 C 8.1 km/h
197 08-07-2022 16:20:00 25.4 C 10.59 g/m*3 25.4 C 12.9 km/h
198 08-07-2022 16:25:00 25.6 C 11.19 g/m*3 25.6 C 9.7 km/h
199 08-07-2022 16:30:00 25.7 C 10.77 g/m*3 25.7 C 11.3 km/h
200 08-07-2022 16:35:00 25.6 C 10.95 g/m*3 25.6 C 12.9 km/h
Sensor: Nr:Datum:Temp:Abs-Feuchte:Windchill:Wind:
Aussen-T/F 201 08-07-2022 16:40:00 25.6 C 10.48 g/m*3 25.6 C 8.1 km/h
202 08-07-2022 16:45:00 25.2 C 10.48 g/m*3 25.2 C 19.3 km/h
203 08-07-2022 16:50:00 25.1 C 10.88 g/m*3 25.1 C 14.5 km/h
204 08-07-2022 16:55:00 25.2 C 11.17 g/m*3 25.2 C 11.3 km/h
205 08-07-2022 17:00:00 25.6 C 10.95 g/m*3 25.6 C 20.9 km/h
206 08-07-2022 17:05:00 25.6 C 10.71 g/m*3 25.6 C 16.1 km/h
207 08-07-2022 17:10:00 25.2 C 10.71 g/m*3 25.2 C 16.1 km/h
208 08-07-2022 17:15:00 25.4 C 10.83 g/m*3 25.4 C 12.9 km/h
209 08-07-2022 17:20:00 25.4 C 11.06 g/m*3 25.4 C 19.3 km/h
210 08-07-2022 17:25:00 25.5 C 10.89 g/m*3 25.5 C 19.3 km/h
211 08-07-2022 17:30:00 25.6 C 11.43 g/m*3 25.6 C 16.1 km/h
212 08-07-2022 17:35:00 25.8 C 11.07 g/m*3 25.8 C 11.3 km/h
213 08-07-2022 17:40:00 25.7 C 11.01 g/m*3 25.7 C 16.1 km/h
214 08-07-2022 17:45:00 25.2 C 10.94 g/m*3 25.2 C 17.7 km/h
215 08-07-2022 17:50:00 24.9 C 11.22 g/m*3 24.9 C 11.3 km/h
216 08-07-2022 17:55:00 25.3 C 11.24 g/m*3 25.3 C 12.9 km/h
217 08-07-2022 18:00:00 25.6 C 11.19 g/m*3 25.6 C 9.7 km/h
218 08-07-2022 18:05:00 25.4 C 11.06 g/m*3 25.4 C 14.5 km/h
219 08-07-2022 18:10:00 24.9 C 10.99 g/m*3 24.9 C 8.1 km/h
220 08-07-2022 18:15:00 24.8 C 10.93 g/m*3 24.8 C 9.7 km/h
221 08-07-2022 18:20:00 25.1 C 11.34 g/m*3 25.1 C 14.5 km/h
222 08-07-2022 18:25:00 25.3 C 11.24 g/m*3 25.3 C 11.3 km/h
223 08-07-2022 18:30:00 25.1 C 11.11 g/m*3 25.1 C 11.3 km/h
224 08-07-2022 18:35:00 25.1 C 11.34 g/m*3 25.1 C 17.7 km/h
225 08-07-2022 18:40:00 24.8 C 11.38 g/m*3 24.8 C 17.7 km/h
Sensor: Nr:Datum:Temp:Abs-Feuchte:Windchill:Wind:
Aussen-T/F 226 08-07-2022 18:45:00 24.8 C 11.38 g/m*3 24.8 C 9.7 km/h
227 08-07-2022 18:50:00 24.8 C 11.38 g/m*3 24.8 C 11.3 km/h
228 08-07-2022 18:55:00 24.9 C 11.45 g/m*3 24.9 C 9.7 km/h
229 08-07-2022 19:00:00 24.8 C 11.38 g/m*3 24.8 C 12.9 km/h
230 08-07-2022 19:05:00 24.5 C 11.41 g/m*3 24.5 C 11.3 km/h
231 08-07-2022 19:10:00 24.1 C 11.82 g/m*3 24.1 C 12.9 km/h
232 08-07-2022 19:15:00 23.7 C 11.76 g/m*3 23.7 C 9.7 km/h
233 08-07-2022 19:20:00 23.3 C 11.71 g/m*3 23.3 C 11.3 km/h
234 08-07-2022 19:25:00 23.1 C 11.58 g/m*3 23.1 C 8.1 km/h
235 08-07-2022 19:30:00 23 C 11.72 g/m*3 23 C 11.3 km/h
236 08-07-2022 19:35:00 22.9 C 11.44 g/m*3 22.9 C 6.4 km/h
237 08-07-2022 19:40:00 22.8 C 11.58 g/m*3 22.8 C 11.3 km/h
238 08-07-2022 19:45:00 22.9 C 11.65 g/m*3 22.9 C 16.1 km/h
239 08-07-2022 19:50:00 23.2 C 11.64 g/m*3 23.2 C 16.1 km/h
240 08-07-2022 19:55:00 23.2 C 11.64 g/m*3 23.2 C 14.5 km/h
241 08-07-2022 20:00:00 23.2 C 11.64 g/m*3 23.2 C 12.9 km/h
242 08-07-2022 20:05:00 23.1 C 11.78 g/m*3 23.1 C 14.5 km/h
243 08-07-2022 20:10:00 22.9 C 11.44 g/m*3 22.9 C 11.3 km/h
244 08-07-2022 20:15:00 22.7 C 11.72 g/m*3 22.7 C 8.1 km/h
245 08-07-2022 20:20:00 22.7 C 11.72 g/m*3 22.7 C 8.1 km/h
246 08-07-2022 20:25:00 22.6 C 11.65 g/m*3 22.6 C 3.2 km/h
247 08-07-2022 20:30:00 22.5 C 11.58 g/m*3 22.5 C 9.7 km/h
248 08-07-2022 20:35:00 22.4 C 11.72 g/m*3 22.4 C 11.3 km/h
249 08-07-2022 20:40:00 22.3 C 11.65 g/m*3 22.3 C 12.9 km/h
250 08-07-2022 20:45:00 22.2 C 11.58 g/m*3 22.2 C 4.8 km/h
Sensor: Nr:Datum:Temp:Abs-Feuchte:Windchill:Wind:
Aussen-T/F 251 08-07-2022 20:50:00 22.2 C 11.78 g/m*3 22.2 C 3.2 km/h
252 08-07-2022 20:55:00 22.1 C 11.52 g/m*3 22.1 C 3.2 km/h
253 08-07-2022 21:00:00 22 C 11.65 g/m*3 22 C 4.8 km/h
254 08-07-2022 21:05:00 21.9 C 11.58 g/m*3 21.9 C 1.6 km/h
255 08-07-2022 21:10:00 21.9 C 11.77 g/m*3 21.9 C 0 km/h
256 08-07-2022 21:15:00 21.9 C 12.35 g/m*3 21.9 C 0 km/h
257 08-07-2022 21:20:00 21.8 C 12.28 g/m*3 21.8 C 1.6 km/h
258 08-07-2022 21:25:00 21.6 C 12.33 g/m*3 21.6 C 0 km/h
259 08-07-2022 21:30:00 21.3 C 12.12 g/m*3 21.3 C 0 km/h
260 08-07-2022 21:35:00 20.9 C 12.02 g/m*3 20.9 C 0 km/h
261 08-07-2022 21:40:00 20.6 C 11.99 g/m*3 20.6 C 1.6 km/h
262 08-07-2022 21:45:00 20.1 C 11.82 g/m*3 20.1 C 1.6 km/h
263 08-07-2022 21:50:00 19.8 C 11.79 g/m*3 19.8 C 1.6 km/h
264 08-07-2022 21:55:00 19.4 C 11.68 g/m*3 19.4 C 1.6 km/h
265 08-07-2022 22:00:00 19.1 C 11.64 g/m*3 19.1 C 1.6 km/h
266 08-07-2022 22:05:00 18.8 C 11.6 g/m*3 18.8 C 6.4 km/h
267 08-07-2022 22:10:00 18.6 C 11.62 g/m*3 18.6 C 1.6 km/h
268 08-07-2022 22:15:00 18.3 C 11.57 g/m*3 18.3 C 0 km/h
269 08-07-2022 22:20:00 18.1 C 11.59 g/m*3 18.1 C 1.6 km/h
270 08-07-2022 22:25:00 17.9 C 11.45 g/m*3 17.9 C 1.6 km/h
271 08-07-2022 22:30:00 17.7 C 11.47 g/m*3 17.7 C 1.6 km/h
272 08-07-2022 22:35:00 17.6 C 11.55 g/m*3 17.6 C 3.2 km/h
273 08-07-2022 22:40:00 17.4 C 11.56 g/m*3 17.4 C 1.6 km/h
274 08-07-2022 22:45:00 17.3 C 11.49 g/m*3 17.3 C 1.6 km/h
275 08-07-2022 22:50:00 17.1 C 11.5 g/m*3 17.1 C 1.6 km/h
Sensor: Nr:Datum:Temp:Abs-Feuchte:Windchill:Wind:
Aussen-T/F 276 08-07-2022 22:55:00 17 C 11.43 g/m*3 17 C 1.6 km/h
277 08-07-2022 23:00:00 16.8 C 11.29 g/m*3 16.8 C 1.6 km/h
278 08-07-2022 23:05:00 16.8 C 11.44 g/m*3 16.8 C 1.6 km/h
279 08-07-2022 23:10:00 16.7 C 11.37 g/m*3 16.7 C 0 km/h
280 08-07-2022 23:15:00 16.6 C 11.44 g/m*3 16.6 C 0 km/h
281 08-07-2022 23:20:00 16.4 C 11.31 g/m*3 16.4 C 0 km/h
282 08-07-2022 23:25:00 16.3 C 11.24 g/m*3 16.3 C 0 km/h
283 08-07-2022 23:30:00 16.2 C 11.17 g/m*3 16.2 C 0 km/h
284 08-07-2022 23:35:00 16.1 C 11.24 g/m*3 16.1 C 0 km/h
285 08-07-2022 23:40:00 15.9 C 11.1 g/m*3 15.9 C 0 km/h
286 08-07-2022 23:45:00 15.8 C 11.04 g/m*3 15.8 C 0 km/h
287 08-07-2022 23:50:00 15.7 C 11.11 g/m*3 15.7 C 0 km/h
288 08-07-2022 23:55:00 15.6 C 11.04 g/m*3 15.6 C 0 km/h
289 09-07-2022 00:00:00 15.4 C 10.9 g/m*3 15.4 C 0 km/h
290 09-07-2022 00:05:00 15.3 C 10.97 g/m*3 15.3 C 0 km/h
291 09-07-2022 00:10:00 15.2 C 10.9 g/m*3 15.2 C 0 km/h
292 09-07-2022 00:15:00 15.2 C 10.9 g/m*3 15.2 C 0 km/h
293 09-07-2022 00:20:00 15.1 C 10.97 g/m*3 15.1 C 0 km/h
294 09-07-2022 00:25:00 15 C 10.9 g/m*3 15 C 0 km/h
295 09-07-2022 00:30:00 14.9 C 10.96 g/m*3 14.9 C 0 km/h
296 09-07-2022 00:35:00 14.9 C 10.96 g/m*3 14.9 C 0 km/h
297 09-07-2022 00:40:00 14.8 C 10.89 g/m*3 14.8 C 0 km/h
298 09-07-2022 00:45:00 14.9 C 10.96 g/m*3 14.9 C 1.6 km/h
299 09-07-2022 00:50:00 14.9 C 10.96 g/m*3 14.9 C 1.6 km/h
300 09-07-2022 00:55:00 14.9 C 10.96 g/m*3 14.9 C 1.6 km/h
Sensor: Nr:Datum:Temp:Abs-Feuchte:Windchill:Wind:
Aussen-T/F 301 09-07-2022 01:00:00 14.9 C 10.96 g/m*3 14.9 C 4.8 km/h
302 09-07-2022 01:05:00 14.9 C 10.96 g/m*3 14.9 C 4.8 km/h
303 09-07-2022 01:10:00 14.8 C 10.89 g/m*3 14.8 C 0 km/h
304 09-07-2022 01:15:00 14.8 C 10.89 g/m*3 14.8 C 1.6 km/h
305 09-07-2022 01:20:00 14.8 C 10.89 g/m*3 14.8 C 1.6 km/h
306 09-07-2022 01:25:00 14.7 C 10.95 g/m*3 14.7 C 1.6 km/h
307 09-07-2022 01:30:00 14.7 C 10.95 g/m*3 14.7 C 1.6 km/h
308 09-07-2022 01:35:00 14.7 C 10.95 g/m*3 14.7 C 3.2 km/h
309 09-07-2022 01:40:00 14.6 C 10.89 g/m*3 14.6 C 0 km/h
310 09-07-2022 01:45:00 14.6 C 10.89 g/m*3 14.6 C 1.6 km/h
311 09-07-2022 01:50:00 14.5 C 10.82 g/m*3 14.5 C 1.6 km/h
312 09-07-2022 01:55:00 14.4 C 10.88 g/m*3 14.4 C 6.4 km/h
313 09-07-2022 02:00:00 14.4 C 10.88 g/m*3 14.4 C 1.6 km/h
314 09-07-2022 02:05:00 14.3 C 10.81 g/m*3 14.3 C 1.6 km/h
315 09-07-2022 02:10:00 14.3 C 10.81 g/m*3 14.3 C 1.6 km/h
316 09-07-2022 02:15:00 14.2 C 10.75 g/m*3 14.2 C 1.6 km/h
317 09-07-2022 02:20:00 14.2 C 10.75 g/m*3 14.2 C 0 km/h
318 09-07-2022 02:25:00 14.1 C 10.68 g/m*3 14.1 C 0 km/h
319 09-07-2022 02:30:00 13.9 C 10.55 g/m*3 13.9 C 0 km/h
320 09-07-2022 02:35:00 13.9 C 10.55 g/m*3 13.9 C 1.6 km/h
321 09-07-2022 02:40:00 13.8 C 10.6 g/m*3 13.8 C 3.2 km/h
322 09-07-2022 02:45:00 13.8 C 10.6 g/m*3 13.8 C 0 km/h
323 09-07-2022 02:50:00 13.8 C 10.6 g/m*3 13.8 C 0 km/h
324 09-07-2022 02:55:00 13.7 C 10.54 g/m*3 13.7 C 0 km/h
325 09-07-2022 03:00:00 13.7 C 10.54 g/m*3 13.7 C 3.2 km/h
Sensor: Nr:Datum:Temp:Abs-Feuchte:Windchill:Wind:
Aussen-T/F 326 09-07-2022 03:05:00 13.6 C 10.47 g/m*3 13.6 C 0 km/h
327 09-07-2022 03:10:00 13.6 C 10.47 g/m*3 13.6 C 0 km/h
328 09-07-2022 03:15:00 13.5 C 10.41 g/m*3 13.5 C 0 km/h
329 09-07-2022 03:20:00 13.4 C 10.46 g/m*3 13.4 C 0 km/h
330 09-07-2022 03:25:00 13.4 C 10.46 g/m*3 13.4 C 0 km/h
331 09-07-2022 03:30:00 13.3 C 10.4 g/m*3 13.3 C 0 km/h
332 09-07-2022 03:35:00 13.3 C 10.4 g/m*3 13.3 C 0 km/h
333 09-07-2022 03:40:00 13.2 C 10.33 g/m*3 13.2 C 3.2 km/h
334 09-07-2022 03:45:00 13.2 C 10.45 g/m*3 13.2 C 1.6 km/h
335 09-07-2022 03:50:00 13.2 C 10.45 g/m*3 13.2 C 4.8 km/h
336 09-07-2022 03:55:00 13.2 C 10.45 g/m*3 13.2 C 1.6 km/h
337 09-07-2022 04:00:00 13.2 C 10.45 g/m*3 13.2 C 1.6 km/h
338 09-07-2022 04:05:00 13.2 C 10.45 g/m*3 13.2 C 0 km/h
339 09-07-2022 04:10:00 13.2 C 10.45 g/m*3 13.2 C 0 km/h
340 09-07-2022 04:15:00 13.1 C 10.38 g/m*3 13.1 C 0 km/h
341 09-07-2022 04:20:00 13 C 10.32 g/m*3 13 C 4.8 km/h
342 09-07-2022 04:25:00 13 C 10.43 g/m*3 13 C 1.6 km/h
343 09-07-2022 04:30:00 13.1 C 10.5 g/m*3 13.1 C 1.6 km/h
344 09-07-2022 04:35:00 13.1 C 10.5 g/m*3 13.1 C 3.2 km/h
345 09-07-2022 04:40:00 13.1 C 10.5 g/m*3 13.1 C 3.2 km/h
346 09-07-2022 04:45:00 13.1 C 10.5 g/m*3 13.1 C 1.6 km/h
347 09-07-2022 04:50:00 13.1 C 10.5 g/m*3 13.1 C 1.6 km/h
348 09-07-2022 04:55:00 13 C 10.43 g/m*3 13 C 4.8 km/h
349 09-07-2022 05:00:00 13 C 10.43 g/m*3 13 C 1.6 km/h
350 09-07-2022 05:05:00 13 C 10.43 g/m*3 13 C 1.6 km/h
Sensor: Nr:Datum:Temp:Abs-Feuchte:Windchill:Wind:
Aussen-T/F 351 09-07-2022 05:10:00 12.9 C 10.37 g/m*3 12.9 C 1.6 km/h
352 09-07-2022 05:15:00 12.9 C 10.37 g/m*3 12.9 C 3.2 km/h
353 09-07-2022 05:20:00 12.9 C 10.37 g/m*3 12.9 C 3.2 km/h
354 09-07-2022 05:25:00 12.8 C 10.3 g/m*3 12.8 C 0 km/h
355 09-07-2022 05:30:00 12.8 C 10.3 g/m*3 12.8 C 1.6 km/h
356 09-07-2022 05:35:00 12.8 C 10.3 g/m*3 12.8 C 0 km/h
357 09-07-2022 05:40:00 12.7 C 10.24 g/m*3 12.7 C 0 km/h
358 09-07-2022 05:45:00 12.7 C 10.24 g/m*3 12.7 C 3.2 km/h
359 09-07-2022 05:50:00 12.7 C 10.24 g/m*3 12.7 C 1.6 km/h
360 09-07-2022 05:55:00 12.7 C 10.24 g/m*3 12.7 C 0 km/h
361 09-07-2022 06:00:00 12.7 C 10.24 g/m*3 12.7 C 0 km/h
362 09-07-2022 06:05:00 12.6 C 10.18 g/m*3 12.6 C 1.6 km/h
363 09-07-2022 06:10:00 12.6 C 10.18 g/m*3 12.6 C 0 km/h
364 09-07-2022 06:15:00 12.6 C 10.18 g/m*3 12.6 C 0 km/h
365 09-07-2022 06:20:00 12.6 C 10.29 g/m*3 12.6 C 0 km/h
366 09-07-2022 06:25:00 12.6 C 10.18 g/m*3 12.6 C 0 km/h
367 09-07-2022 06:30:00 12.6 C 10.29 g/m*3 12.6 C 0 km/h
368 09-07-2022 06:35:00 12.6 C 10.29 g/m*3 12.6 C 0 km/h
369 09-07-2022 06:40:00 12.6 C 10.29 g/m*3 12.6 C 0 km/h
370 09-07-2022 06:45:00 12.6 C 10.29 g/m*3 12.6 C 0 km/h
371 09-07-2022 06:50:00 12.6 C 10.29 g/m*3 12.6 C 0 km/h
372 09-07-2022 06:55:00 12.6 C 10.29 g/m*3 12.6 C 0 km/h
373 09-07-2022 07:00:00 12.6 C 10.29 g/m*3 12.6 C 0 km/h
374 09-07-2022 07:05:00 12.7 C 10.35 g/m*3 12.7 C 0 km/h
375 09-07-2022 07:10:00 12.8 C 10.42 g/m*3 12.8 C 0 km/h
Sensor: Nr:Datum:Temp:Abs-Feuchte:Windchill:Wind:
Aussen-T/F 376 09-07-2022 07:15:00 12.8 C 10.42 g/m*3 12.8 C 0 km/h
377 09-07-2022 07:20:00 12.9 C 10.48 g/m*3 12.9 C 0 km/h
378 09-07-2022 07:25:00 12.9 C 10.48 g/m*3 12.9 C 0 km/h
379 09-07-2022 07:30:00 13 C 10.66 g/m*3 13 C 1.6 km/h
380 09-07-2022 07:35:00 13.1 C 10.73 g/m*3 13.1 C 3.2 km/h
381 09-07-2022 07:40:00 13.2 C 10.79 g/m*3 13.2 C 0 km/h
382 09-07-2022 07:45:00 13.3 C 10.86 g/m*3 13.3 C 0 km/h
383 09-07-2022 07:50:00 13.4 C 10.93 g/m*3 13.4 C 0 km/h
384 09-07-2022 07:55:00 13.7 C 11.13 g/m*3 13.7 C 6.4 km/h
385 09-07-2022 08:00:00 13.9 C 11.27 g/m*3 13.9 C 6.4 km/h
386 09-07-2022 08:05:00 14.2 C 11.36 g/m*3 14.2 C 1.6 km/h
387 09-07-2022 08:10:00 14.4 C 11.5 g/m*3 14.4 C 1.6 km/h
388 09-07-2022 08:15:00 14.6 C 11.64 g/m*3 14.6 C 1.6 km/h
389 09-07-2022 08:20:00 14.8 C 11.65 g/m*3 14.8 C 0 km/h
390 09-07-2022 08:25:00 15.1 C 11.87 g/m*3 15.1 C 0 km/h
391 09-07-2022 08:30:00 15.3 C 11.88 g/m*3 15.3 C 3.2 km/h
392 09-07-2022 08:35:00 15.6 C 11.97 g/m*3 15.6 C 4.8 km/h
393 09-07-2022 08:40:00 15.8 C 11.98 g/m*3 15.8 C 4.8 km/h
394 09-07-2022 08:45:00 15.9 C 11.92 g/m*3 15.9 C 4.8 km/h
395 09-07-2022 08:50:00 16.2 C 12 g/m*3 16.2 C 3.2 km/h
396 09-07-2022 08:55:00 16.3 C 11.93 g/m*3 16.3 C 0 km/h
397 09-07-2022 09:00:00 16.5 C 12.08 g/m*3 16.5 C 1.6 km/h
398 09-07-2022 09:05:00 16.8 C 12.15 g/m*3 16.8 C 1.6 km/h
399 09-07-2022 09:10:00 17 C 12.3 g/m*3 17 C 3.2 km/h
400 09-07-2022 09:15:00 17.2 C 12.3 g/m*3 17.2 C 1.6 km/h
Sensor: Nr:Datum:Temp:Abs-Feuchte:Windchill:Wind:
Aussen-T/F 401 09-07-2022 09:20:00 17.4 C 12.3 g/m*3 17.4 C 0 km/h
402 09-07-2022 09:25:00 17.7 C 12.37 g/m*3 17.7 C 3.2 km/h
403 09-07-2022 09:30:00 17.8 C 12.29 g/m*3 17.8 C 1.6 km/h
404 09-07-2022 09:35:00 18.1 C 12.52 g/m*3 18.1 C 0 km/h
405 09-07-2022 09:40:00 18.4 C 12.74 g/m*3 18.4 C 0 km/h
406 09-07-2022 09:45:00 18.7 C 12.81 g/m*3 18.7 C 0 km/h
407 09-07-2022 09:50:00 19 C 12.71 g/m*3 19 C 0 km/h
408 09-07-2022 09:55:00 19.4 C 13.01 g/m*3 19.4 C 0 km/h
409 09-07-2022 10:00:00 19.7 C 13.25 g/m*3 19.7 C 0 km/h
410 09-07-2022 10:05:00 19.9 C 13.06 g/m*3 19.9 C 4.8 km/h
411 09-07-2022 10:10:00 20.2 C 12.94 g/m*3 20.2 C 4.8 km/h
412 09-07-2022 10:15:00 20.4 C 12.91 g/m*3 20.4 C 4.8 km/h
413 09-07-2022 10:20:00 20.6 C 13.07 g/m*3 20.6 C 3.2 km/h
414 09-07-2022 10:25:00 20.7 C 13.14 g/m*3 20.7 C 6.4 km/h
415 09-07-2022 10:30:00 20.8 C 13.04 g/m*3 20.8 C 4.8 km/h
416 09-07-2022 10:35:00 20.9 C 13.11 g/m*3 20.9 C 8.1 km/h
417 09-07-2022 10:40:00 21.2 C 13.16 g/m*3 21.2 C 8.1 km/h
418 09-07-2022 10:45:00 21.3 C 13.05 g/m*3 21.3 C 9.7 km/h
419 09-07-2022 10:50:00 21.4 C 12.94 g/m*3 21.4 C 6.4 km/h
420 09-07-2022 10:55:00 21.6 C 13.09 g/m*3 21.6 C 9.7 km/h
421 09-07-2022 11:00:00 21.7 C 12.97 g/m*3 21.7 C 8.1 km/h
422 09-07-2022 11:05:00 21.6 C 12.9 g/m*3 21.6 C 6.4 km/h
423 09-07-2022 11:10:00 21.6 C 12.9 g/m*3 21.6 C 8.1 km/h
424 09-07-2022 11:15:00 21.6 C 12.9 g/m*3 21.6 C 9.7 km/h
425 09-07-2022 11:20:00 21.8 C 12.66 g/m*3 21.8 C 9.7 km/h
Sensor: Nr:Datum:Temp:Abs-Feuchte:Windchill:Wind:
Aussen-T/F 426 09-07-2022 11:25:00 21.9 C 12.93 g/m*3 21.9 C 4.8 km/h
427 09-07-2022 11:30:00 22.2 C 12.76 g/m*3 22.2 C 11.3 km/h
428 09-07-2022 11:35:00 22.6 C 12.66 g/m*3 22.6 C 9.7 km/h
429 09-07-2022 11:40:00 22.8 C 13 g/m*3 22.8 C 6.4 km/h
430 09-07-2022 11:45:00 23 C 12.74 g/m*3 23 C 6.4 km/h
431 09-07-2022 11:50:00 23 C 12.95 g/m*3 23 C 8.1 km/h
432 09-07-2022 11:55:00 23 C 12.95 g/m*3 23 C 8.1 km/h
433 09-07-2022 12:00:00 23.2 C 12.89 g/m*3 23.2 C 8.1 km/h
434 09-07-2022 12:05:00 23.6 C 12.76 g/m*3 23.6 C 8.1 km/h
435 09-07-2022 12:10:00 23.8 C 12.91 g/m*3 23.8 C 12.9 km/h
436 09-07-2022 12:15:00 23.6 C 12.76 g/m*3 23.6 C 12.9 km/h
437 09-07-2022 12:20:00 23.6 C 12.97 g/m*3 23.6 C 6.4 km/h
438 09-07-2022 12:25:00 23.7 C 12.62 g/m*3 23.7 C 6.4 km/h
439 09-07-2022 12:30:00 23.8 C 12.26 g/m*3 23.8 C 11.3 km/h
440 09-07-2022 12:35:00 24 C 12.4 g/m*3 24 C 11.3 km/h
441 09-07-2022 12:40:00 24.2 C 12.32 g/m*3 24.2 C 11.3 km/h
442 09-07-2022 12:45:00 24.4 C 12.24 g/m*3 24.4 C 9.7 km/h
443 09-07-2022 12:50:00 24.6 C 12.6 g/m*3 24.6 C 14.5 km/h
444 09-07-2022 12:55:00 24.7 C 12.45 g/m*3 24.7 C 14.5 km/h
445 09-07-2022 13:00:00 24.8 C 12.52 g/m*3 24.8 C 9.7 km/h
446 09-07-2022 13:05:00 25 C 12.66 g/m*3 25 C 6.4 km/h
447 09-07-2022 13:10:00 25.3 C 12.64 g/m*3 25.3 C 8.1 km/h
448 09-07-2022 13:15:00 25.7 C 12.69 g/m*3 25.7 C 11.3 km/h
449 09-07-2022 13:20:00 25.8 C 11.8 g/m*3 25.8 C 9.7 km/h
450 09-07-2022 13:25:00 25.8 C 11.56 g/m*3 25.8 C 16.1 km/h
Sensor: Nr:Datum:Temp:Abs-Feuchte:Windchill:Wind:
Aussen-T/F 451 09-07-2022 13:30:00 25.3 C 11.71 g/m*3 25.3 C 17.7 km/h
452 09-07-2022 13:35:00 24.9 C 11.9 g/m*3 24.9 C 17.7 km/h
453 09-07-2022 13:40:00 24.8 C 12.06 g/m*3 24.8 C 9.7 km/h
454 09-07-2022 13:45:00 25.1 C 12.04 g/m*3 25.1 C 14.5 km/h
455 09-07-2022 13:50:00 25.3 C 11.94 g/m*3 25.3 C 12.9 km/h
456 09-07-2022 13:55:00 25.7 C 12.45 g/m*3 25.7 C 12.9 km/h
457 09-07-2022 14:00:00 25.9 C 12.1 g/m*3 25.9 C 6.4 km/h
458 09-07-2022 14:05:00 25.8 C 11.8 g/m*3 25.8 C 11.3 km/h
459 09-07-2022 14:10:00 25.7 C 11.97 g/m*3 25.7 C 11.3 km/h
460 09-07-2022 14:15:00 25.5 C 11.84 g/m*3 25.5 C 11.3 km/h
461 09-07-2022 14:20:00 25.6 C 11.67 g/m*3 25.6 C 8.1 km/h
462 09-07-2022 14:25:00 25.6 C 11.43 g/m*3 25.6 C 16.1 km/h
463 09-07-2022 14:30:00 25.6 C 11.43 g/m*3 25.6 C 11.3 km/h
464 09-07-2022 14:35:00 25.4 C 11.3 g/m*3 25.4 C 11.3 km/h
465 09-07-2022 14:40:00 25.5 C 11.84 g/m*3 25.5 C 8.1 km/h
466 09-07-2022 14:45:00 25.8 C 11.32 g/m*3 25.8 C 16.1 km/h
467 09-07-2022 14:50:00 26.1 C 11.75 g/m*3 26.1 C 11.3 km/h
468 09-07-2022 14:55:00 26 C 11.44 g/m*3 26 C 20.9 km/h
469 09-07-2022 15:00:00 25.6 C 11.19 g/m*3 25.6 C 17.7 km/h
470 09-07-2022 15:05:00 25.3 C 11.24 g/m*3 25.3 C 6.4 km/h
471 09-07-2022 15:10:00 25 C 11.05 g/m*3 25 C 11.3 km/h
472 09-07-2022 15:15:00 24.8 C 11.38 g/m*3 24.8 C 8.1 km/h
473 09-07-2022 15:20:00 24.6 C 11.25 g/m*3 24.6 C 11.3 km/h
474 09-07-2022 15:25:00 24.4 C 11.57 g/m*3 24.4 C 9.7 km/h
475 09-07-2022 15:30:00 24.2 C 11.44 g/m*3 24.2 C 9.7 km/h
Sensor: Nr:Datum:Temp:Abs-Feuchte:Windchill:Wind:
Aussen-T/F 476 09-07-2022 15:35:00 24.1 C 11.6 g/m*3 24.1 C 9.7 km/h
477 09-07-2022 15:40:00 24.2 C 11.66 g/m*3 24.2 C 6.4 km/h
478 09-07-2022 15:45:00 24.3 C 11.95 g/m*3 24.3 C 8.1 km/h
479 09-07-2022 15:50:00 24.6 C 11.93 g/m*3 24.6 C 12.9 km/h
480 09-07-2022 15:55:00 24.8 C 12.06 g/m*3 24.8 C 11.3 km/h
481 09-07-2022 16:00:00 24.9 C 11.9 g/m*3 24.9 C 11.3 km/h
482 09-07-2022 16:05:00 25.2 C 12.11 g/m*3 25.2 C 8.1 km/h
483 09-07-2022 16:10:00 25.3 C 12.17 g/m*3 25.3 C 6.4 km/h
484 09-07-2022 16:15:00 25.7 C 12.21 g/m*3 25.7 C 12.9 km/h
485 09-07-2022 16:20:00 26 C 12.17 g/m*3 26 C 8.1 km/h
486 09-07-2022 16:25:00 26.4 C 12.45 g/m*3 26.4 C 8.1 km/h
487 09-07-2022 16:30:00 26.4 C 12.2 g/m*3 26.4 C 6.4 km/h
488 09-07-2022 16:35:00 26.2 C 12.06 g/m*3 26.2 C 8.1 km/h
489 09-07-2022 16:40:00 25.9 C 12.35 g/m*3 25.9 C 1.6 km/h
490 09-07-2022 16:45:00 25.7 C 11.97 g/m*3 25.7 C 6.4 km/h
491 09-07-2022 16:50:00 25.4 C 12.01 g/m*3 25.4 C 4.8 km/h
492 09-07-2022 16:55:00 25.1 C 11.57 g/m*3 25.1 C 8.1 km/h
493 09-07-2022 17:00:00 24.8 C 11.61 g/m*3 24.8 C 12.9 km/h
494 09-07-2022 17:05:00 24.6 C 11.93 g/m*3 24.6 C 22.5 km/h
495 09-07-2022 17:10:00 23.8 C 13.12 g/m*3 23.8 C 22.5 km/h
496 09-07-2022 17:15:00 22.7 C 12.93 g/m*3 22.7 C 24.1 km/h
497 09-07-2022 17:20:00 21.8 C 13.05 g/m*3 21.8 C 24.1 km/h
498 09-07-2022 17:25:00 21.1 C 13.63 g/m*3 21.1 C 19.3 km/h
499 09-07-2022 17:30:00 20.4 C 13.62 g/m*3 20.4 C 14.5 km/h
500 09-07-2022 17:35:00 20 C 14 g/m*3 20 C 12.9 km/h
Sensor: Nr:Datum:Temp:Abs-Feuchte:Windchill:Wind:
Aussen-T/F 501 09-07-2022 17:40:00 19.7 C 14.09 g/m*3 19.7 C 3.2 km/h
502 09-07-2022 17:45:00 19.4 C 14.01 g/m*3 19.4 C 8.1 km/h
503 09-07-2022 17:50:00 19.3 C 14.1 g/m*3 19.3 C 4.8 km/h
504 09-07-2022 17:55:00 19.1 C 14.1 g/m*3 19.1 C 4.8 km/h
505 09-07-2022 18:00:00 19.1 C 14.26 g/m*3 19.1 C 0 km/h
506 09-07-2022 18:05:00 19.1 C 14.43 g/m*3 19.1 C 0 km/h
507 09-07-2022 18:10:00 19.1 C 14.43 g/m*3 19.1 C 0 km/h
508 09-07-2022 18:15:00 19.2 C 14.68 g/m*3 19.2 C 0 km/h
509 09-07-2022 18:20:00 19.4 C 14.85 g/m*3 19.4 C 0 km/h
510 09-07-2022 18:25:00 19.7 C 14.94 g/m*3 19.7 C 1.6 km/h
511 09-07-2022 18:30:00 19.7 C 14.26 g/m*3 19.7 C 4.8 km/h
512 09-07-2022 18:35:00 19.8 C 14.35 g/m*3 19.8 C 1.6 km/h
513 09-07-2022 18:40:00 20 C 14.52 g/m*3 20 C 4.8 km/h
514 09-07-2022 18:45:00 20.2 C 14.51 g/m*3 20.2 C 0 km/h
515 09-07-2022 18:50:00 20.3 C 14.6 g/m*3 20.3 C 0 km/h
516 09-07-2022 18:55:00 20.5 C 14.77 g/m*3 20.5 C 0 km/h
517 09-07-2022 19:00:00 20.7 C 14.94 g/m*3 20.7 C 0 km/h
518 09-07-2022 19:05:00 20.7 C 14.76 g/m*3 20.7 C 1.6 km/h
519 09-07-2022 19:10:00 20.8 C 14.85 g/m*3 20.8 C 4.8 km/h
520 09-07-2022 19:15:00 20.8 C 14.67 g/m*3 20.8 C 0 km/h
521 09-07-2022 19:20:00 20.9 C 15.12 g/m*3 20.9 C 0 km/h
522 09-07-2022 19:25:00 21.1 C 15.29 g/m*3 21.1 C 3.2 km/h
523 09-07-2022 19:30:00 21.2 C 15.2 g/m*3 21.2 C 3.2 km/h
524 09-07-2022 19:35:00 21.3 C 14.91 g/m*3 21.3 C 1.6 km/h
525 09-07-2022 19:40:00 21.3 C 14.91 g/m*3 21.3 C 0 km/h
Sensor: Nr:Datum:Temp:Abs-Feuchte:Windchill:Wind:
Aussen-T/F 526 09-07-2022 19:45:00 21.4 C 15.19 g/m*3 21.4 C 3.2 km/h
527 09-07-2022 19:50:00 21.5 C 15.09 g/m*3 21.5 C 3.2 km/h
528 09-07-2022 19:55:00 21.6 C 14.79 g/m*3 21.6 C 1.6 km/h
529 09-07-2022 20:00:00 21.5 C 14.9 g/m*3 21.5 C 1.6 km/h
530 09-07-2022 20:05:00 21.4 C 14.81 g/m*3 21.4 C 1.6 km/h
531 09-07-2022 20:10:00 21.4 C 15 g/m*3 21.4 C 1.6 km/h
532 09-07-2022 20:15:00 21.4 C 14.81 g/m*3 21.4 C 0 km/h
533 09-07-2022 20:20:00 21.4 C 14.81 g/m*3 21.4 C 0 km/h
534 09-07-2022 20:25:00 21.4 C 14.81 g/m*3 21.4 C 0 km/h
535 09-07-2022 20:30:00 21.3 C 14.54 g/m*3 21.3 C 3.2 km/h
536 09-07-2022 20:35:00 21.2 C 14.46 g/m*3 21.2 C 4.8 km/h
537 09-07-2022 20:40:00 21.2 C 14.64 g/m*3 21.2 C 0 km/h
538 09-07-2022 20:45:00 21.1 C 14.74 g/m*3 21.1 C 8.1 km/h
539 09-07-2022 20:50:00 20.9 C 14.39 g/m*3 20.9 C 3.2 km/h
540 09-07-2022 20:55:00 20.8 C 14.3 g/m*3 20.8 C 6.4 km/h
541 09-07-2022 21:00:00 20.7 C 14.4 g/m*3 20.7 C 0 km/h
542 09-07-2022 21:05:00 20.6 C 14.14 g/m*3 20.6 C 11.3 km/h
543 09-07-2022 21:10:00 20.4 C 13.8 g/m*3 20.4 C 8.1 km/h
544 09-07-2022 21:15:00 20.3 C 13.72 g/m*3 20.3 C 1.6 km/h
545 09-07-2022 21:20:00 20.1 C 13.39 g/m*3 20.1 C 4.8 km/h
546 09-07-2022 21:25:00 19.9 C 13.06 g/m*3 19.9 C 6.4 km/h
547 09-07-2022 21:30:00 19.7 C 12.57 g/m*3 19.7 C 6.4 km/h
548 09-07-2022 21:35:00 19.6 C 12.15 g/m*3 19.6 C 9.7 km/h
549 09-07-2022 21:40:00 19.4 C 11.85 g/m*3 19.4 C 4.8 km/h
550 09-07-2022 21:45:00 19.4 C 12.35 g/m*3 19.4 C 1.6 km/h
Sensor: Nr:Datum:Temp:Abs-Feuchte:Windchill:Wind:
Aussen-T/F 551 09-07-2022 21:50:00 19.3 C 12.11 g/m*3 19.3 C 3.2 km/h
552 09-07-2022 21:55:00 19.2 C 12.2 g/m*3 19.2 C 3.2 km/h
553 09-07-2022 22:00:00 19.1 C 12.29 g/m*3 19.1 C 0 km/h
554 09-07-2022 22:05:00 18.8 C 11.76 g/m*3 18.8 C 1.6 km/h
555 09-07-2022 22:10:00 18.6 C 11.78 g/m*3 18.6 C 3.2 km/h
556 09-07-2022 22:15:00 18.4 C 11.64 g/m*3 18.4 C 6.4 km/h
557 09-07-2022 22:20:00 18.3 C 11.73 g/m*3 18.3 C 3.2 km/h
558 09-07-2022 22:25:00 18.2 C 11.66 g/m*3 18.2 C 0 km/h
559 09-07-2022 22:30:00 18 C 11.52 g/m*3 18 C 3.2 km/h
560 09-07-2022 22:35:00 17.8 C 11.54 g/m*3 17.8 C 1.6 km/h
561 09-07-2022 22:40:00 17.6 C 11.4 g/m*3 17.6 C 0 km/h
562 09-07-2022 22:45:00 17.3 C 11.34 g/m*3 17.3 C 0 km/h
563 09-07-2022 22:50:00 17.1 C 11.21 g/m*3 17.1 C 0 km/h
564 09-07-2022 22:55:00 16.9 C 11.08 g/m*3 16.9 C 3.2 km/h
565 09-07-2022 23:00:00 16.7 C 11.08 g/m*3 16.7 C 4.8 km/h
566 09-07-2022 23:05:00 16.6 C 11.16 g/m*3 16.6 C 1.6 km/h
567 09-07-2022 23:10:00 16.6 C 11.02 g/m*3 16.6 C 12.9 km/h
568 09-07-2022 23:15:00 16.7 C 11.08 g/m*3 16.7 C 3.2 km/h
569 09-07-2022 23:20:00 16.8 C 11.15 g/m*3 16.8 C 1.6 km/h
570 09-07-2022 23:25:00 16.9 C 10.93 g/m*3 16.9 C 6.4 km/h
571 09-07-2022 23:30:00 17.1 C 11.21 g/m*3 17.1 C 4.8 km/h
572 09-07-2022 23:35:00 17.2 C 10.98 g/m*3 17.2 C 8.1 km/h
573 09-07-2022 23:40:00 17.4 C 11.12 g/m*3 17.4 C 11.3 km/h
574 09-07-2022 23:45:00 17.6 C 11.1 g/m*3 17.6 C 12.9 km/h
575 09-07-2022 23:50:00 17.8 C 11.08 g/m*3 17.8 C 6.4 km/h
Sensor: Nr:Datum:Temp:Abs-Feuchte:Windchill:Wind:
Aussen-T/F 576 09-07-2022 23:55:00 17.8 C 11.08 g/m*3 17.8 C 11.3 km/h
577 10-07-2022 00:00:00 17.8 C 11.08 g/m*3 17.8 C 12.9 km/h
578 10-07-2022 00:05:00 17.8 C 11.08 g/m*3 17.8 C 11.3 km/h
579 10-07-2022 00:10:00 17.8 C 11.08 g/m*3 17.8 C 12.9 km/h
580 10-07-2022 00:15:00 17.8 C 11.08 g/m*3 17.8 C 6.4 km/h
581 10-07-2022 00:20:00 17.8 C 11.08 g/m*3 17.8 C 9.7 km/h
582 10-07-2022 00:25:00 17.8 C 11.08 g/m*3 17.8 C 3.2 km/h
583 10-07-2022 00:30:00 17.7 C 11.01 g/m*3 17.7 C 4.8 km/h
584 10-07-2022 00:35:00 17.7 C 11.01 g/m*3 17.7 C 6.4 km/h
585 10-07-2022 00:40:00 17.6 C 10.95 g/m*3 17.6 C 9.7 km/h
586 10-07-2022 00:45:00 17.4 C 10.67 g/m*3 17.4 C 11.3 km/h
587 10-07-2022 00:50:00 17.3 C 10.61 g/m*3 17.3 C 9.7 km/h
588 10-07-2022 00:55:00 17.2 C 10.54 g/m*3 17.2 C 8.1 km/h
589 10-07-2022 01:00:00 17.1 C 10.63 g/m*3 17.1 C 6.4 km/h
590 10-07-2022 01:05:00 17 C 10.56 g/m*3 17 C 1.6 km/h
591 10-07-2022 01:10:00 16.9 C 10.64 g/m*3 16.9 C 0 km/h
592 10-07-2022 01:15:00 16.9 C 10.64 g/m*3 16.9 C 1.6 km/h
593 10-07-2022 01:20:00 16.8 C 10.58 g/m*3 16.8 C 9.7 km/h
594 10-07-2022 01:25:00 16.8 C 10.58 g/m*3 16.8 C 8.1 km/h
595 10-07-2022 01:30:00 16.8 C 10.58 g/m*3 16.8 C 3.2 km/h
596 10-07-2022 01:35:00 16.7 C 10.37 g/m*3 16.7 C 11.3 km/h
597 10-07-2022 01:40:00 16.7 C 10.52 g/m*3 16.7 C 9.7 km/h
598 10-07-2022 01:45:00 16.7 C 10.52 g/m*3 16.7 C 4.8 km/h
599 10-07-2022 01:50:00 16.7 C 10.52 g/m*3 16.7 C 9.7 km/h
600 10-07-2022 01:55:00 16.6 C 10.45 g/m*3 16.6 C 3.2 km/h
Sensor: Nr:Datum:Temp:Abs-Feuchte:Windchill:Wind:
Aussen-T/F 601 10-07-2022 02:00:00 16.6 C 10.45 g/m*3 16.6 C 4.8 km/h
602 10-07-2022 02:05:00 16.5 C 10.53 g/m*3 16.5 C 4.8 km/h
603 10-07-2022 02:10:00 16.4 C 10.47 g/m*3 16.4 C 8.1 km/h
604 10-07-2022 02:15:00 16.4 C 10.47 g/m*3 16.4 C 6.4 km/h
605 10-07-2022 02:20:00 16.3 C 10.41 g/m*3 16.3 C 8.1 km/h
606 10-07-2022 02:25:00 16.3 C 10.41 g/m*3 16.3 C 8.1 km/h
607 10-07-2022 02:30:00 16.2 C 10.34 g/m*3 16.2 C 4.8 km/h
608 10-07-2022 02:35:00 16.1 C 10.28 g/m*3 16.1 C 17.7 km/h
609 10-07-2022 02:40:00 16.1 C 10.28 g/m*3 16.1 C 17.7 km/h
610 10-07-2022 02:45:00 15.9 C 10.02 g/m*3 15.9 C 14.5 km/h
611 10-07-2022 02:50:00 15.9 C 10.02 g/m*3 15.9 C 9.7 km/h
612 10-07-2022 02:55:00 15.7 C 9.9 g/m*3 15.7 C 9.7 km/h
613 10-07-2022 03:00:00 15.6 C 9.97 g/m*3 15.6 C 6.4 km/h
614 10-07-2022 03:05:00 15.4 C 9.85 g/m*3 15.4 C 8.1 km/h
615 10-07-2022 03:10:00 15.3 C 9.79 g/m*3 15.3 C 8.1 km/h
616 10-07-2022 03:15:00 15.2 C 9.73 g/m*3 15.2 C 14.5 km/h
617 10-07-2022 03:20:00 15.1 C 9.68 g/m*3 15.1 C 9.7 km/h
618 10-07-2022 03:25:00 14.9 C 9.56 g/m*3 14.9 C 9.7 km/h
619 10-07-2022 03:30:00 14.8 C 9.63 g/m*3 14.8 C 11.3 km/h
620 10-07-2022 03:35:00 14.7 C 9.57 g/m*3 14.7 C 12.9 km/h
621 10-07-2022 03:40:00 14.6 C 9.51 g/m*3 14.6 C 9.7 km/h
622 10-07-2022 03:45:00 14.6 C 9.51 g/m*3 14.6 C 9.7 km/h
623 10-07-2022 03:50:00 14.4 C 9.39 g/m*3 14.4 C 4.8 km/h
624 10-07-2022 03:55:00 14.3 C 9.46 g/m*3 14.3 C 4.8 km/h
625 10-07-2022 04:00:00 14.3 C 9.46 g/m*3 14.3 C 0 km/h
Sensor: Nr:Datum:Temp:Abs-Feuchte:Windchill:Wind:
Aussen-T/F 626 10-07-2022 04:05:00 14.2 C 9.52 g/m*3 14.2 C 6.4 km/h
627 10-07-2022 04:10:00 14 C 9.41 g/m*3 14 C 4.8 km/h
628 10-07-2022 04:15:00 13.9 C 9.35 g/m*3 13.9 C 3.2 km/h
629 10-07-2022 04:20:00 13.8 C 9.41 g/m*3 13.8 C 3.2 km/h
630 10-07-2022 04:25:00 13.7 C 9.35 g/m*3 13.7 C 0 km/h
631 10-07-2022 04:30:00 13.5 C 9.36 g/m*3 13.5 C 3.2 km/h
632 10-07-2022 04:35:00 13.4 C 9.3 g/m*3 13.4 C 3.2 km/h
633 10-07-2022 04:40:00 13.2 C 9.19 g/m*3 13.2 C 4.8 km/h
634 10-07-2022 04:45:00 13.1 C 9.24 g/m*3 13.1 C 1.6 km/h
635 10-07-2022 04:50:00 13.1 C 9.24 g/m*3 13.1 C 1.6 km/h
636 10-07-2022 04:55:00 12.9 C 9.13 g/m*3 12.9 C 4.8 km/h
637 10-07-2022 05:00:00 12.8 C 9.07 g/m*3 12.8 C 8.1 km/h
638 10-07-2022 05:05:00 12.8 C 9.18 g/m*3 12.8 C 3.2 km/h
639 10-07-2022 05:10:00 12.8 C 9.18 g/m*3 12.8 C 1.6 km/h
640 10-07-2022 05:15:00 12.7 C 9.13 g/m*3 12.7 C 3.2 km/h
641 10-07-2022 05:20:00 12.6 C 9.07 g/m*3 12.6 C 1.6 km/h
642 10-07-2022 05:25:00 12.5 C 9.02 g/m*3 12.5 C 0 km/h
643 10-07-2022 05:30:00 12.3 C 9.01 g/m*3 12.3 C 3.2 km/h
644 10-07-2022 05:35:00 12.2 C 8.96 g/m*3 12.2 C 4.8 km/h
645 10-07-2022 05:40:00 12.2 C 9.06 g/m*3 12.2 C 6.4 km/h
646 10-07-2022 05:45:00 12.1 C 9.01 g/m*3 12.1 C 1.6 km/h
647 10-07-2022 05:50:00 12.1 C 9.01 g/m*3 12.1 C 0 km/h
648 10-07-2022 05:55:00 12.2 C 9.06 g/m*3 12.2 C 4.8 km/h
649 10-07-2022 06:00:00 12.2 C 9.06 g/m*3 12.2 C 0 km/h
650 10-07-2022 06:05:00 12.1 C 9.01 g/m*3 12.1 C 3.2 km/h
Sensor: Nr:Datum:Temp:Abs-Feuchte:Windchill:Wind:
Aussen-T/F 651 10-07-2022 06:10:00 12.1 C 9.12 g/m*3 12.1 C 8.1 km/h
652 10-07-2022 06:15:00 12.1 C 9.12 g/m*3 12.1 C 3.2 km/h
653 10-07-2022 06:20:00 12.1 C 9.22 g/m*3 12.1 C 3.2 km/h
654 10-07-2022 06:25:00 12.1 C 9.22 g/m*3 12.1 C 1.6 km/h
655 10-07-2022 06:30:00 12.2 C 9.28 g/m*3 12.2 C 4.8 km/h
656 10-07-2022 06:35:00 12.3 C 9.34 g/m*3 12.3 C 1.6 km/h
657 10-07-2022 06:40:00 12.4 C 9.4 g/m*3 12.4 C 3.2 km/h
658 10-07-2022 06:45:00 12.6 C 9.51 g/m*3 12.6 C 8.1 km/h
659 10-07-2022 06:50:00 12.7 C 9.57 g/m*3 12.7 C 9.7 km/h
660 10-07-2022 06:55:00 12.8 C 9.52 g/m*3 12.8 C 8.1 km/h
661 10-07-2022 07:00:00 12.9 C 9.58 g/m*3 12.9 C 3.2 km/h
662 10-07-2022 07:05:00 13 C 9.64 g/m*3 13 C 1.6 km/h
663 10-07-2022 07:10:00 13.1 C 9.7 g/m*3 13.1 C 1.6 km/h
664 10-07-2022 07:15:00 13.2 C 9.76 g/m*3 13.2 C 4.8 km/h
665 10-07-2022 07:20:00 13.3 C 9.82 g/m*3 13.3 C 0 km/h
666 10-07-2022 07:25:00 13.4 C 9.76 g/m*3 13.4 C 0 km/h
667 10-07-2022 07:30:00 13.5 C 9.83 g/m*3 13.5 C 6.4 km/h
668 10-07-2022 07:35:00 13.6 C 9.77 g/m*3 13.6 C 3.2 km/h
669 10-07-2022 07:40:00 13.7 C 9.83 g/m*3 13.7 C 4.8 km/h
670 10-07-2022 07:45:00 13.8 C 9.77 g/m*3 13.8 C 6.4 km/h
671 10-07-2022 07:50:00 13.9 C 9.83 g/m*3 13.9 C 4.8 km/h
672 10-07-2022 07:55:00 13.9 C 9.83 g/m*3 13.9 C 11.3 km/h
673 10-07-2022 08:00:00 14 C 9.89 g/m*3 14 C 6.4 km/h
674 10-07-2022 08:05:00 14.1 C 9.95 g/m*3 14.1 C 9.7 km/h
675 10-07-2022 08:10:00 14.2 C 9.89 g/m*3 14.2 C 6.4 km/h
Sensor: Nr:Datum:Temp:Abs-Feuchte:Windchill:Wind:
Aussen-T/F 676 10-07-2022 08:15:00 14.3 C 9.95 g/m*3 14.3 C 9.7 km/h
677 10-07-2022 08:20:00 14.4 C 9.89 g/m*3 14.4 C 9.7 km/h
678 10-07-2022 08:25:00 14.4 C 9.89 g/m*3 14.4 C 8.1 km/h
679 10-07-2022 08:30:00 14.6 C 9.89 g/m*3 14.6 C 9.7 km/h
680 10-07-2022 08:35:00 14.6 C 10.01 g/m*3 14.6 C 11.3 km/h
681 10-07-2022 08:40:00 14.7 C 9.95 g/m*3 14.7 C 8.1 km/h
682 10-07-2022 08:45:00 14.8 C 9.88 g/m*3 14.8 C 12.9 km/h
683 10-07-2022 08:50:00 14.9 C 9.81 g/m*3 14.9 C 14.5 km/h
684 10-07-2022 08:55:00 15 C 9.75 g/m*3 15 C 14.5 km/h
685 10-07-2022 09:00:00 15.1 C 9.68 g/m*3 15.1 C 12.9 km/h
686 10-07-2022 09:05:00 15.1 C 9.68 g/m*3 15.1 C 12.9 km/h
687 10-07-2022 09:10:00 15.2 C 9.73 g/m*3 15.2 C 14.5 km/h
688 10-07-2022 09:15:00 15.2 C 9.73 g/m*3 15.2 C 9.7 km/h
689 10-07-2022 09:20:00 15.3 C 9.66 g/m*3 15.3 C 9.7 km/h
690 10-07-2022 09:25:00 15.4 C 9.59 g/m*3 15.4 C 12.9 km/h
691 10-07-2022 09:30:00 15.6 C 9.84 g/m*3 15.6 C 3.2 km/h
692 10-07-2022 09:35:00 15.7 C 9.77 g/m*3 15.7 C 8.1 km/h
693 10-07-2022 09:40:00 15.7 C 9.63 g/m*3 15.7 C 8.1 km/h
694 10-07-2022 09:45:00 15.8 C 9.56 g/m*3 15.8 C 8.1 km/h
695 10-07-2022 09:50:00 15.9 C 9.48 g/m*3 15.9 C 9.7 km/h
696 10-07-2022 09:55:00 16.1 C 9.6 g/m*3 16.1 C 11.3 km/h
697 10-07-2022 10:00:00 16.2 C 9.65 g/m*3 16.2 C 12.9 km/h
698 10-07-2022 10:05:00 16.2 C 9.93 g/m*3 16.2 C 6.4 km/h
699 10-07-2022 10:10:00 16.4 C 9.91 g/m*3 16.4 C 9.7 km/h
700 10-07-2022 10:15:00 16.4 C 9.77 g/m*3 16.4 C 9.7 km/h
Sensor: Nr:Datum:Temp:Abs-Feuchte:Windchill:Wind:
Aussen-T/F 701 10-07-2022 10:20:00 16.7 C 10.09 g/m*3 16.7 C 14.5 km/h
702 10-07-2022 10:25:00 16.8 C 9.87 g/m*3 16.8 C 4.8 km/h
703 10-07-2022 10:30:00 16.8 C 9.72 g/m*3 16.8 C 11.3 km/h
704 10-07-2022 10:35:00 16.8 C 9.87 g/m*3 16.8 C 9.7 km/h
705 10-07-2022 10:40:00 16.9 C 9.78 g/m*3 16.9 C 8.1 km/h
706 10-07-2022 10:45:00 16.9 C 9.49 g/m*3 16.9 C 12.9 km/h
707 10-07-2022 10:50:00 17.1 C 9.75 g/m*3 17.1 C 9.7 km/h
708 10-07-2022 10:55:00 17.3 C 9.58 g/m*3 17.3 C 14.5 km/h
709 10-07-2022 11:00:00 17.3 C 9.58 g/m*3 17.3 C 9.7 km/h
710 10-07-2022 11:05:00 17.2 C 9.67 g/m*3 17.2 C 6.4 km/h
711 10-07-2022 11:10:00 17.2 C 9.67 g/m*3 17.2 C 4.8 km/h
712 10-07-2022 11:15:00 17.4 C 9.48 g/m*3 17.4 C 12.9 km/h
713 10-07-2022 11:20:00 17.6 C 9.45 g/m*3 17.6 C 9.7 km/h
714 10-07-2022 11:25:00 17.8 C 9.56 g/m*3 17.8 C 11.3 km/h
715 10-07-2022 11:30:00 17.9 C 9.62 g/m*3 17.9 C 11.3 km/h
716 10-07-2022 11:35:00 17.8 C 9.56 g/m*3 17.8 C 6.4 km/h
717 10-07-2022 11:40:00 17.9 C 9.62 g/m*3 17.9 C 14.5 km/h
718 10-07-2022 11:45:00 18.1 C 9.58 g/m*3 18.1 C 12.9 km/h
719 10-07-2022 11:50:00 18.2 C 9.64 g/m*3 18.2 C 11.3 km/h
720 10-07-2022 11:55:00 18.3 C 9.54 g/m*3 18.3 C 16.1 km/h
721 10-07-2022 12:00:00 18.4 C 9.44 g/m*3 18.4 C 12.9 km/h
722 10-07-2022 12:05:00 18.4 C 9.44 g/m*3 18.4 C 14.5 km/h
723 10-07-2022 12:10:00 18.4 C 9.59 g/m*3 18.4 C 6.4 km/h
724 10-07-2022 12:15:00 18.4 C 9.75 g/m*3 18.4 C 9.7 km/h
725 10-07-2022 12:20:00 18.4 C 9.75 g/m*3 18.4 C 11.3 km/h
Sensor: Nr:Datum:Temp:Abs-Feuchte:Windchill:Wind:
Aussen-T/F 726 10-07-2022 12:25:00 18.5 C 9.65 g/m*3 18.5 C 12.9 km/h
727 10-07-2022 12:30:00 18.5 C 9.65 g/m*3 18.5 C 16.1 km/h
728 10-07-2022 12:35:00 18.4 C 9.75 g/m*3 18.4 C 14.5 km/h
729 10-07-2022 12:40:00 18.3 C 9.69 g/m*3 18.3 C 17.7 km/h
730 10-07-2022 12:45:00 18.2 C 9.79 g/m*3 18.2 C 14.5 km/h
731 10-07-2022 12:50:00 18.2 C 9.95 g/m*3 18.2 C 12.9 km/h
732 10-07-2022 12:55:00 18.3 C 9.85 g/m*3 18.3 C 14.5 km/h
733 10-07-2022 13:00:00 18.3 C 10.01 g/m*3 18.3 C 14.5 km/h
734 10-07-2022 13:05:00 18.4 C 9.91 g/m*3 18.4 C 12.9 km/h
735 10-07-2022 13:10:00 18.7 C 9.93 g/m*3 18.7 C 12.9 km/h
736 10-07-2022 13:15:00 18.8 C 9.99 g/m*3 18.8 C 12.9 km/h
737 10-07-2022 13:20:00 18.9 C 10.21 g/m*3 18.9 C 12.9 km/h
738 10-07-2022 13:25:00 18.9 C 10.21 g/m*3 18.9 C 14.5 km/h
739 10-07-2022 13:30:00 18.9 C 10.21 g/m*3 18.9 C 16.1 km/h
740 10-07-2022 13:35:00 18.7 C 10.09 g/m*3 18.7 C 19.3 km/h
741 10-07-2022 13:40:00 18.5 C 10.28 g/m*3 18.5 C 14.5 km/h
742 10-07-2022 13:45:00 18.6 C 10.19 g/m*3 18.6 C 14.5 km/h
743 10-07-2022 13:50:00 18.7 C 10.25 g/m*3 18.7 C 8.1 km/h
744 10-07-2022 13:55:00 18.8 C 10.31 g/m*3 18.8 C 16.1 km/h
745 10-07-2022 14:00:00 19 C 10.27 g/m*3 19 C 17.7 km/h
746 10-07-2022 14:05:00 19.2 C 10.22 g/m*3 19.2 C 16.1 km/h
747 10-07-2022 14:10:00 19.2 C 10.55 g/m*3 19.2 C 11.3 km/h
748 10-07-2022 14:15:00 19.2 C 10.55 g/m*3 19.2 C 12.9 km/h
749 10-07-2022 14:20:00 19.5 C 10.57 g/m*3 19.5 C 16.1 km/h
750 10-07-2022 14:25:00 19.7 C 10.7 g/m*3 19.7 C 12.9 km/h
Sensor: Nr:Datum:Temp:Abs-Feuchte:Windchill:Wind:
Aussen-T/F 751 10-07-2022 14:30:00 19.8 C 10.59 g/m*3 19.8 C 11.3 km/h
752 10-07-2022 14:35:00 19.7 C 10.87 g/m*3 19.7 C 11.3 km/h
753 10-07-2022 14:40:00 19.9 C 10.82 g/m*3 19.9 C 9.7 km/h
754 10-07-2022 14:45:00 20 C 10.71 g/m*3 20 C 14.5 km/h
755 10-07-2022 14:50:00 19.7 C 10.53 g/m*3 19.7 C 12.9 km/h
756 10-07-2022 14:55:00 19.3 C 10.62 g/m*3 19.3 C 11.3 km/h
757 10-07-2022 15:00:00 19 C 10.59 g/m*3 19 C 9.7 km/h
758 10-07-2022 15:05:00 18.8 C 10.79 g/m*3 18.8 C 9.7 km/h
759 10-07-2022 15:10:00 18.9 C 10.69 g/m*3 18.9 C 11.3 km/h
760 10-07-2022 15:15:00 18.9 C 10.69 g/m*3 18.9 C 11.3 km/h
761 10-07-2022 15:20:00 19 C 10.76 g/m*3 19 C 12.9 km/h
762 10-07-2022 15:25:00 19.1 C 10.82 g/m*3 19.1 C 12.9 km/h
763 10-07-2022 15:30:00 19.1 C 10.82 g/m*3 19.1 C 11.3 km/h
764 10-07-2022 15:35:00 19 C 10.76 g/m*3 19 C 9.7 km/h
765 10-07-2022 15:40:00 18.9 C 10.85 g/m*3 18.9 C 9.7 km/h
766 10-07-2022 15:45:00 18.8 C 10.79 g/m*3 18.8 C 9.7 km/h
767 10-07-2022 15:50:00 18.6 C 10.66 g/m*3 18.6 C 16.1 km/h
768 10-07-2022 15:55:00 18.4 C 10.85 g/m*3 18.4 C 12.9 km/h
769 10-07-2022 16:00:00 18.4 C 10.85 g/m*3 18.4 C 12.9 km/h
770 10-07-2022 16:05:00 18.4 C 10.85 g/m*3 18.4 C 6.4 km/h
771 10-07-2022 16:10:00 18.4 C 10.85 g/m*3 18.4 C 11.3 km/h
772 10-07-2022 16:15:00 18.5 C 10.92 g/m*3 18.5 C 9.7 km/h
773 10-07-2022 16:20:00 18.6 C 10.98 g/m*3 18.6 C 11.3 km/h
774 10-07-2022 16:25:00 18.6 C 10.98 g/m*3 18.6 C 11.3 km/h
775 10-07-2022 16:30:00 18.5 C 10.92 g/m*3 18.5 C 14.5 km/h
Sensor: Nr:Datum:Temp:Abs-Feuchte:Windchill:Wind:
Aussen-T/F 776 10-07-2022 16:35:00 18.4 C 10.85 g/m*3 18.4 C 9.7 km/h
777 10-07-2022 16:40:00 18.3 C 10.94 g/m*3 18.3 C 11.3 km/h
778 10-07-2022 16:45:00 18.2 C 11.04 g/m*3 18.2 C 12.9 km/h
779 10-07-2022 16:50:00 18.1 C 10.97 g/m*3 18.1 C 11.3 km/h
780 10-07-2022 16:55:00 18.1 C 11.12 g/m*3 18.1 C 11.3 km/h
781 10-07-2022 17:00:00 18.2 C 11.19 g/m*3 18.2 C 11.3 km/h
782 10-07-2022 17:05:00 18.2 C 11.19 g/m*3 18.2 C 16.1 km/h
783 10-07-2022 17:10:00 18.3 C 11.26 g/m*3 18.3 C 9.7 km/h
784 10-07-2022 17:15:00 18.3 C 11.26 g/m*3 18.3 C 9.7 km/h
785 10-07-2022 17:20:00 18.3 C 11.26 g/m*3 18.3 C 6.4 km/h
786 10-07-2022 17:25:00 18.3 C 11.41 g/m*3 18.3 C 6.4 km/h
787 10-07-2022 17:30:00 18.4 C 11.48 g/m*3 18.4 C 3.2 km/h
788 10-07-2022 17:35:00 18.6 C 11.62 g/m*3 18.6 C 8.1 km/h
789 10-07-2022 17:40:00 18.6 C 11.3 g/m*3 18.6 C 6.4 km/h
790 10-07-2022 17:45:00 18.6 C 11.3 g/m*3 18.6 C 8.1 km/h
791 10-07-2022 17:50:00 18.4 C 11.32 g/m*3 18.4 C 12.9 km/h
792 10-07-2022 17:55:00 18.4 C 11.32 g/m*3 18.4 C 8.1 km/h
793 10-07-2022 18:00:00 18.4 C 11.48 g/m*3 18.4 C 4.8 km/h
794 10-07-2022 18:05:00 18.5 C 11.39 g/m*3 18.5 C 6.4 km/h
795 10-07-2022 18:10:00 18.5 C 11.39 g/m*3 18.5 C 8.1 km/h
796 10-07-2022 18:15:00 18.7 C 11.53 g/m*3 18.7 C 9.7 km/h
797 10-07-2022 18:20:00 18.8 C 11.6 g/m*3 18.8 C 3.2 km/h
798 10-07-2022 18:25:00 18.8 C 11.43 g/m*3 18.8 C 8.1 km/h
799 10-07-2022 18:30:00 18.8 C 11.6 g/m*3 18.8 C 3.2 km/h
800 10-07-2022 18:35:00 18.7 C 11.53 g/m*3 18.7 C 6.4 km/h
Sensor: Nr:Datum:Temp:Abs-Feuchte:Windchill:Wind:
Aussen-T/F 801 10-07-2022 18:40:00 18.6 C 11.62 g/m*3 18.6 C 3.2 km/h
802 10-07-2022 18:45:00 18.6 C 11.62 g/m*3 18.6 C 4.8 km/h
803 10-07-2022 18:50:00 18.4 C 11.32 g/m*3 18.4 C 6.4 km/h
804 10-07-2022 18:55:00 18.4 C 11.48 g/m*3 18.4 C 3.2 km/h
805 10-07-2022 19:00:00 18.4 C 11.48 g/m*3 18.4 C 4.8 km/h
806 10-07-2022 19:05:00 18.4 C 11.48 g/m*3 18.4 C 1.6 km/h
807 10-07-2022 19:10:00 18.4 C 11.48 g/m*3 18.4 C 1.6 km/h
808 10-07-2022 19:15:00 18.4 C 11.48 g/m*3 18.4 C 6.4 km/h
809 10-07-2022 19:20:00 18.5 C 11.55 g/m*3 18.5 C 8.1 km/h
810 10-07-2022 19:25:00 18.5 C 11.55 g/m*3 18.5 C 4.8 km/h
811 10-07-2022 19:30:00 18.5 C 11.55 g/m*3 18.5 C 8.1 km/h
812 10-07-2022 19:35:00 18.4 C 11.48 g/m*3 18.4 C 3.2 km/h
813 10-07-2022 19:40:00 18.4 C 11.48 g/m*3 18.4 C 6.4 km/h
814 10-07-2022 19:45:00 18.4 C 11.48 g/m*3 18.4 C 1.6 km/h
815 10-07-2022 19:50:00 18.3 C 11.41 g/m*3 18.3 C 4.8 km/h
816 10-07-2022 19:55:00 18.3 C 11.41 g/m*3 18.3 C 4.8 km/h
817 10-07-2022 20:00:00 18.3 C 11.57 g/m*3 18.3 C 0 km/h
818 10-07-2022 20:05:00 18.3 C 11.57 g/m*3 18.3 C 3.2 km/h
819 10-07-2022 20:10:00 18.3 C 11.57 g/m*3 18.3 C 3.2 km/h
820 10-07-2022 20:15:00 18.3 C 11.57 g/m*3 18.3 C 1.6 km/h
821 10-07-2022 20:20:00 18.3 C 11.57 g/m*3 18.3 C 1.6 km/h
822 10-07-2022 20:25:00 18.3 C 11.57 g/m*3 18.3 C 0 km/h
823 10-07-2022 20:30:00 18.4 C 11.95 g/m*3 18.4 C 0 km/h
824 10-07-2022 20:35:00 18.4 C 11.95 g/m*3 18.4 C 0 km/h
825 10-07-2022 20:40:00 18.4 C 11.95 g/m*3 18.4 C 0 km/h
Sensor: Nr:Datum:Temp:Abs-Feuchte:Windchill:Wind:
Aussen-T/F 826 10-07-2022 20:45:00 18.4 C 12.11 g/m*3 18.4 C 0 km/h
827 10-07-2022 20:50:00 18.4 C 12.11 g/m*3 18.4 C 0 km/h
828 10-07-2022 20:55:00 18.4 C 12.11 g/m*3 18.4 C 0 km/h
829 10-07-2022 21:00:00 18.4 C 12.27 g/m*3 18.4 C 0 km/h
830 10-07-2022 21:05:00 18.3 C 12.04 g/m*3 18.3 C 0 km/h
831 10-07-2022 21:10:00 18.3 C 12.2 g/m*3 18.3 C 0 km/h
832 10-07-2022 21:15:00 18.2 C 12.12 g/m*3 18.2 C 0 km/h
833 10-07-2022 21:20:00 18.1 C 12.05 g/m*3 18.1 C 0 km/h
834 10-07-2022 21:25:00 17.9 C 11.91 g/m*3 17.9 C 0 km/h
835 10-07-2022 21:30:00 17.9 C 11.91 g/m*3 17.9 C 0 km/h
836 10-07-2022 21:35:00 17.8 C 11.84 g/m*3 17.8 C 0 km/h
837 10-07-2022 21:40:00 17.8 C 11.99 g/m*3 17.8 C 0 km/h
838 10-07-2022 21:45:00 17.7 C 11.92 g/m*3 17.7 C 0 km/h
839 10-07-2022 21:50:00 17.6 C 12 g/m*3 17.6 C 0 km/h
840 10-07-2022 21:55:00 17.5 C 11.93 g/m*3 17.5 C 0 km/h
841 10-07-2022 22:00:00 17.4 C 11.86 g/m*3 17.4 C 1.6 km/h
842 10-07-2022 22:05:00 17.3 C 11.79 g/m*3 17.3 C 1.6 km/h
843 10-07-2022 22:10:00 17.3 C 11.79 g/m*3 17.3 C 0 km/h
844 10-07-2022 22:15:00 17.2 C 11.86 g/m*3 17.2 C 0 km/h
845 10-07-2022 22:20:00 17.2 C 11.86 g/m*3 17.2 C 0 km/h
846 10-07-2022 22:25:00 17.2 C 11.86 g/m*3 17.2 C 0 km/h
847 10-07-2022 22:30:00 17.1 C 11.79 g/m*3 17.1 C 3.2 km/h
848 10-07-2022 22:35:00 17.1 C 11.94 g/m*3 17.1 C 3.2 km/h
849 10-07-2022 22:40:00 17 C 11.87 g/m*3 17 C 1.6 km/h
850 10-07-2022 22:45:00 16.9 C 11.79 g/m*3 16.9 C 1.6 km/h
Sensor: Nr:Datum:Temp:Abs-Feuchte:Windchill:Wind:
Aussen-T/F 851 10-07-2022 22:50:00 16.9 C 11.79 g/m*3 16.9 C 0 km/h
852 10-07-2022 22:55:00 16.9 C 11.79 g/m*3 16.9 C 0 km/h
853 10-07-2022 23:00:00 16.9 C 11.94 g/m*3 16.9 C 0 km/h
854 10-07-2022 23:05:00 16.9 C 11.94 g/m*3 16.9 C 0 km/h
855 10-07-2022 23:10:00 16.9 C 11.94 g/m*3 16.9 C 0 km/h
856 10-07-2022 23:15:00 16.9 C 11.94 g/m*3 16.9 C 0 km/h
857 10-07-2022 23:20:00 16.8 C 11.87 g/m*3 16.8 C 1.6 km/h
858 10-07-2022 23:25:00 16.8 C 11.87 g/m*3 16.8 C 0 km/h
859 10-07-2022 23:30:00 16.8 C 12.01 g/m*3 16.8 C 0 km/h
860 10-07-2022 23:35:00 16.8 C 12.01 g/m*3 16.8 C 1.6 km/h
861 10-07-2022 23:40:00 16.8 C 12.01 g/m*3 16.8 C 0 km/h
862 10-07-2022 23:45:00 16.8 C 12.01 g/m*3 16.8 C 0 km/h
863 10-07-2022 23:50:00 16.8 C 12.01 g/m*3 16.8 C 0 km/h
864 10-07-2022 23:55:00 16.7 C 11.94 g/m*3 16.7 C 0 km/h

Legende:
   Min
   Max


Maximal/Minimal-Werte vom 08.07.2022 - 10.07.2022

Sensor Min Max Avg
Temp
(Aussen-T/F)
10.7 °C
08-07-2022  06:10:00
26.4 °C
09-07-2022  16:25:00
17.9 °C
Abs-Feuchte
(Aussen-T/F)
8.5 g/m*3
08-07-2022  06:00:00
15.29 g/m*3
09-07-2022  19:25:00
10.9 g/m*3
Windchill
(Aussen-T/F)
10.7 C
08-07-2022  06:10:00
26.4 C
09-07-2022  16:25:00
17.88 C

Die Daten stammen von einer Davis Vantage Pro 2 Wetter-Station und werden unter Linux mit der Software wview2wettercgi und aufbereitet. Alle Angaben erfolgen ohne Gewähr für ihre Vollständigkeit oder Richtigkeit.
Kontakt: Rainer Krienke krienke@uni-koblenz.de . Meine Webseiten an der Uni Koblenz oder privat.
Version: $Revision: 0.78 $